sensor_id;sensor_type;location;lat;lon;timestamp;P1;durP1;ratioP1;P2;durP2;ratioP2
43678;SDS011;29279;50.858;4.392;2022-10-23T00:02:04;8.32;;;2.47;;
43678;SDS011;29279;50.858;4.392;2022-10-23T00:04:29;9.70;;;2.10;;
43678;SDS011;29279;50.858;4.392;2022-10-23T00:06:55;11.60;;;2.60;;
43678;SDS011;29279;50.858;4.392;2022-10-23T00:09:22;10.05;;;2.47;;
43678;SDS011;29279;50.858;4.392;2022-10-23T00:11:48;10.43;;;2.42;;
43678;SDS011;29279;50.858;4.392;2022-10-23T00:14:16;7.63;;;2.30;;
43678;SDS011;29279;50.858;4.392;2022-10-23T00:16:46;17.80;;;3.00;;
43678;SDS011;29279;50.858;4.392;2022-10-23T00:19:12;9.07;;;1.92;;
43678;SDS011;29279;50.858;4.392;2022-10-23T00:21:37;8.15;;;1.70;;
43678;SDS011;29279;50.858;4.392;2022-10-23T00:24:04;7.72;;;2.25;;
43678;SDS011;29279;50.858;4.392;2022-10-23T00:26:30;10.13;;;2.53;;
43678;SDS011;29279;50.858;4.392;2022-10-23T00:28:56;11.70;;;2.28;;
43678;SDS011;29279;50.858;4.392;2022-10-23T00:31:22;6.18;;;2.10;;
43678;SDS011;29279;50.858;4.392;2022-10-23T00:33:49;13.65;;;2.55;;
43678;SDS011;29279;50.858;4.392;2022-10-23T00:36:16;12.25;;;2.00;;
43678;SDS011;29279;50.858;4.392;2022-10-23T00:38:43;12.88;;;2.20;;
43678;SDS011;29279;50.858;4.392;2022-10-23T00:41:13;6.70;;;2.28;;
43678;SDS011;29279;50.858;4.392;2022-10-23T00:43:53;10.27;;;2.40;;
43678;SDS011;29279;50.858;4.392;2022-10-23T00:46:26;6.50;;;2.08;;
43678;SDS011;29279;50.858;4.392;2022-10-23T00:48:52;7.30;;;2.42;;
43678;SDS011;29279;50.858;4.392;2022-10-23T00:51:18;9.80;;;2.50;;
43678;SDS011;29279;50.858;4.392;2022-10-23T00:53:43;13.73;;;2.75;;
43678;SDS011;29279;50.858;4.392;2022-10-23T00:56:10;8.35;;;2.13;;
43678;SDS011;29279;50.858;4.392;2022-10-23T00:58:36;8.32;;;2.15;;
43678;SDS011;29279;50.858;4.392;2022-10-23T01:01:13;13.48;;;1.88;;
43678;SDS011;29279;50.858;4.392;2022-10-23T01:03:42;11.73;;;2.25;;
43678;SDS011;29279;50.858;4.392;2022-10-23T01:09:08;10.55;;;2.17;;
43678;SDS011;29279;50.858;4.392;2022-10-23T01:14:31;10.55;;;3.03;;
43678;SDS011;29279;50.858;4.392;2022-10-23T01:17:29;8.60;;;2.55;;
43678;SDS011;29279;50.858;4.392;2022-10-23T01:28:10;6.05;;;1.90;;
43678;SDS011;29279;50.858;4.392;2022-10-23T01:30:41;8.48;;;2.67;;
43678;SDS011;29279;50.858;4.392;2022-10-23T01:33:16;9.88;;;1.90;;
43678;SDS011;29279;50.858;4.392;2022-10-23T01:35:52;7.70;;;2.00;;
43678;SDS011;29279;50.858;4.392;2022-10-23T01:41:17;7.45;;;1.98;;
43678;SDS011;29279;50.858;4.392;2022-10-23T01:44:00;10.18;;;2.55;;
43678;SDS011;29279;50.858;4.392;2022-10-23T01:46:27;8.95;;;2.05;;
43678;SDS011;29279;50.858;4.392;2022-10-23T01:48:54;6.50;;;2.10;;
43678;SDS011;29279;50.858;4.392;2022-10-23T01:51:22;10.00;;;2.47;;
43678;SDS011;29279;50.858;4.392;2022-10-23T01:53:51;9.70;;;2.30;;
43678;SDS011;29279;50.858;4.392;2022-10-23T01:56:21;7.10;;;2.10;;
43678;SDS011;29279;50.858;4.392;2022-10-23T01:58:55;7.20;;;2.25;;
43678;SDS011;29279;50.858;4.392;2022-10-23T02:01:26;10.02;;;2.35;;
43678;SDS011;29279;50.858;4.392;2022-10-23T02:03:54;10.45;;;2.40;;
43678;SDS011;29279;50.858;4.392;2022-10-23T02:06:21;8.20;;;2.50;;
43678;SDS011;29279;50.858;4.392;2022-10-23T02:08:47;6.15;;;2.20;;
43678;SDS011;29279;50.858;4.392;2022-10-23T02:11:14;13.98;;;2.40;;
43678;SDS011;29279;50.858;4.392;2022-10-23T02:14:03;10.50;;;2.45;;
43678;SDS011;29279;50.858;4.392;2022-10-23T02:16:38;10.70;;;2.20;;
43678;SDS011;29279;50.858;4.392;2022-10-23T02:19:25;10.50;;;2.20;;
43678;SDS011;29279;50.858;4.392;2022-10-23T02:22:09;10.05;;;2.65;;
43678;SDS011;29279;50.858;4.392;2022-10-23T02:24:50;14.68;;;2.05;;
43678;SDS011;29279;50.858;4.392;2022-10-23T02:27:53;9.60;;;2.13;;
43678;SDS011;29279;50.858;4.392;2022-10-23T02:30:16;11.73;;;2.67;;
43678;SDS011;29279;50.858;4.392;2022-10-23T02:32:46;10.43;;;2.55;;
43678;SDS011;29279;50.858;4.392;2022-10-23T02:35:15;5.07;;;1.67;;
43678;SDS011;29279;50.858;4.392;2022-10-23T02:37:43;6.40;;;1.83;;
43678;SDS011;29279;50.858;4.392;2022-10-23T02:42:43;3.67;;;1.60;;
43678;SDS011;29279;50.858;4.392;2022-10-23T02:45:16;4.03;;;1.77;;
43678;SDS011;29279;50.858;4.392;2022-10-23T02:56:07;8.20;;;1.92;;
43678;SDS011;29279;50.858;4.392;2022-10-23T03:01:34;7.60;;;2.50;;
43678;SDS011;29279;50.858;4.392;2022-10-23T03:04:07;5.68;;;2.05;;
43678;SDS011;29279;50.858;4.392;2022-10-23T03:06:35;4.80;;;2.08;;
43678;SDS011;29279;50.858;4.392;2022-10-23T03:09:05;5.65;;;1.80;;
43678;SDS011;29279;50.858;4.392;2022-10-23T03:11:32;10.57;;;2.08;;
43678;SDS011;29279;50.858;4.392;2022-10-23T03:13:58;14.05;;;2.60;;
43678;SDS011;29279;50.858;4.392;2022-10-23T03:16:23;7.47;;;2.00;;
43678;SDS011;29279;50.858;4.392;2022-10-23T03:18:49;9.32;;;1.90;;
43678;SDS011;29279;50.858;4.392;2022-10-23T03:21:15;11.85;;;2.45;;
43678;SDS011;29279;50.858;4.392;2022-10-23T03:23:40;5.95;;;1.92;;
43678;SDS011;29279;50.858;4.392;2022-10-23T03:26:07;6.32;;;1.88;;
43678;SDS011;29279;50.858;4.392;2022-10-23T03:28:33;9.35;;;2.28;;
43678;SDS011;29279;50.858;4.392;2022-10-23T03:30:59;14.63;;;2.60;;
43678;SDS011;29279;50.858;4.392;2022-10-23T03:33:29;10.77;;;2.08;;
43678;SDS011;29279;50.858;4.392;2022-10-23T03:35:55;13.25;;;2.15;;
43678;SDS011;29279;50.858;4.392;2022-10-23T03:38:21;10.85;;;2.00;;
43678;SDS011;29279;50.858;4.392;2022-10-23T03:40:47;10.30;;;2.03;;
43678;SDS011;29279;50.858;4.392;2022-10-23T03:43:13;10.75;;;2.10;;
43678;SDS011;29279;50.858;4.392;2022-10-23T03:45:38;9.48;;;2.20;;
43678;SDS011;29279;50.858;4.392;2022-10-23T03:48:04;8.35;;;2.15;;
43678;SDS011;29279;50.858;4.392;2022-10-23T03:50:31;7.10;;;1.80;;
43678;SDS011;29279;50.858;4.392;2022-10-23T03:52:56;4.97;;;2.20;;
43678;SDS011;29279;50.858;4.392;2022-10-23T03:55:22;5.85;;;2.05;;
43678;SDS011;29279;50.858;4.392;2022-10-23T03:57:49;5.05;;;2.20;;
43678;SDS011;29279;50.858;4.392;2022-10-23T04:00:15;6.40;;;2.20;;
43678;SDS011;29279;50.858;4.392;2022-10-23T04:02:41;7.50;;;2.60;;
43678;SDS011;29279;50.858;4.392;2022-10-23T04:05:06;6.18;;;1.67;;
43678;SDS011;29279;50.858;4.392;2022-10-23T04:07:32;8.93;;;2.55;;
43678;SDS011;29279;50.858;4.392;2022-10-23T04:09:58;6.40;;;2.38;;
43678;SDS011;29279;50.858;4.392;2022-10-23T04:12:23;6.95;;;2.05;;
43678;SDS011;29279;50.858;4.392;2022-10-23T04:14:49;6.13;;;2.00;;
43678;SDS011;29279;50.858;4.392;2022-10-23T04:17:15;7.20;;;2.33;;
43678;SDS011;29279;50.858;4.392;2022-10-23T04:19:40;13.02;;;2.45;;
43678;SDS011;29279;50.858;4.392;2022-10-23T04:22:06;9.98;;;2.45;;
43678;SDS011;29279;50.858;4.392;2022-10-23T04:24:32;5.90;;;2.38;;
43678;SDS011;29279;50.858;4.392;2022-10-23T04:26:58;11.43;;;2.60;;
43678;SDS011;29279;50.858;4.392;2022-10-23T04:29:23;12.80;;;2.25;;
43678;SDS011;29279;50.858;4.392;2022-10-23T04:31:49;7.43;;;2.47;;
43678;SDS011;29279;50.858;4.392;2022-10-23T04:34:16;5.45;;;2.00;;
43678;SDS011;29279;50.858;4.392;2022-10-23T04:36:42;7.43;;;2.42;;
43678;SDS011;29279;50.858;4.392;2022-10-23T04:39:08;10.38;;;3.80;;
43678;SDS011;29279;50.858;4.392;2022-10-23T04:41:34;12.05;;;2.85;;
43678;SDS011;29279;50.858;4.392;2022-10-23T04:44:00;7.05;;;2.75;;
43678;SDS011;29279;50.858;4.392;2022-10-23T04:46:26;10.10;;;2.35;;
43678;SDS011;29279;50.858;4.392;2022-10-23T04:48:52;10.73;;;2.28;;
43678;SDS011;29279;50.858;4.392;2022-10-23T04:51:17;6.70;;;2.20;;
43678;SDS011;29279;50.858;4.392;2022-10-23T04:53:43;7.78;;;2.10;;
43678;SDS011;29279;50.858;4.392;2022-10-23T04:56:13;10.95;;;2.28;;
43678;SDS011;29279;50.858;4.392;2022-10-23T04:58:39;5.97;;;1.92;;
43678;SDS011;29279;50.858;4.392;2022-10-23T05:01:06;4.60;;;1.92;;
43678;SDS011;29279;50.858;4.392;2022-10-23T05:03:34;7.53;;;3.15;;
43678;SDS011;29279;50.858;4.392;2022-10-23T05:06:01;10.10;;;2.70;;
43678;SDS011;29279;50.858;4.392;2022-10-23T05:08:27;6.90;;;2.10;;
43678;SDS011;29279;50.858;4.392;2022-10-23T05:10:53;11.75;;;2.80;;
43678;SDS011;29279;50.858;4.392;2022-10-23T05:13:19;6.72;;;2.42;;
43678;SDS011;29279;50.858;4.392;2022-10-23T05:15:49;10.55;;;2.60;;
43678;SDS011;29279;50.858;4.392;2022-10-23T05:20:55;11.23;;;2.70;;
43678;SDS011;29279;50.858;4.392;2022-10-23T05:23:29;6.10;;;2.60;;
43678;SDS011;29279;50.858;4.392;2022-10-23T05:25:57;7.72;;;2.08;;
43678;SDS011;29279;50.858;4.392;2022-10-23T05:28:23;11.80;;;3.25;;
43678;SDS011;29279;50.858;4.392;2022-10-23T05:30:48;5.28;;;2.25;;
43678;SDS011;29279;50.858;4.392;2022-10-23T05:33:14;7.40;;;2.45;;
43678;SDS011;29279;50.858;4.392;2022-10-23T05:35:40;9.90;;;2.72;;
43678;SDS011;29279;50.858;4.392;2022-10-23T05:38:08;9.10;;;2.20;;
43678;SDS011;29279;50.858;4.392;2022-10-23T05:40:34;11.30;;;2.10;;
43678;SDS011;29279;50.858;4.392;2022-10-23T05:42:59;5.88;;;2.40;;
43678;SDS011;29279;50.858;4.392;2022-10-23T05:45:25;6.63;;;2.35;;
43678;SDS011;29279;50.858;4.392;2022-10-23T05:47:51;8.65;;;2.40;;
43678;SDS011;29279;50.858;4.392;2022-10-23T05:50:17;4.15;;;2.42;;
43678;SDS011;29279;50.858;4.392;2022-10-23T05:52:46;4.18;;;1.80;;
43678;SDS011;29279;50.858;4.392;2022-10-23T05:55:13;6.07;;;2.47;;
43678;SDS011;29279;50.858;4.392;2022-10-23T05:57:39;5.90;;;2.33;;
43678;SDS011;29279;50.858;4.392;2022-10-23T06:00:05;7.72;;;1.77;;
43678;SDS011;29279;50.858;4.392;2022-10-23T06:02:31;9.27;;;2.35;;
43678;SDS011;29279;50.858;4.392;2022-10-23T06:04:57;6.55;;;2.17;;
43678;SDS011;29279;50.858;4.392;2022-10-23T06:07:23;15.90;;;2.40;;
43678;SDS011;29279;50.858;4.392;2022-10-23T06:09:50;11.43;;;3.60;;
43678;SDS011;29279;50.858;4.392;2022-10-23T06:12:16;5.55;;;2.08;;
43678;SDS011;29279;50.858;4.392;2022-10-23T06:14:43;7.05;;;1.90;;
43678;SDS011;29279;50.858;4.392;2022-10-23T06:17:08;2.85;;;1.83;;
43678;SDS011;29279;50.858;4.392;2022-10-23T06:19:34;5.05;;;1.77;;
43678;SDS011;29279;50.858;4.392;2022-10-23T06:21:59;5.25;;;2.13;;
43678;SDS011;29279;50.858;4.392;2022-10-23T06:24:25;8.55;;;2.20;;
43678;SDS011;29279;50.858;4.392;2022-10-23T06:26:51;8.30;;;2.30;;
43678;SDS011;29279;50.858;4.392;2022-10-23T06:29:16;4.93;;;2.03;;
43678;SDS011;29279;50.858;4.392;2022-10-23T06:31:42;5.97;;;2.10;;
43678;SDS011;29279;50.858;4.392;2022-10-23T06:34:09;6.70;;;2.15;;
43678;SDS011;29279;50.858;4.392;2022-10-23T06:36:36;12.05;;;2.67;;
43678;SDS011;29279;50.858;4.392;2022-10-23T06:39:02;8.32;;;2.05;;
43678;SDS011;29279;50.858;4.392;2022-10-23T06:41:28;4.90;;;2.35;;
43678;SDS011;29279;50.858;4.392;2022-10-23T06:43:54;10.32;;;1.70;;
43678;SDS011;29279;50.858;4.392;2022-10-23T06:46:20;3.80;;;1.63;;
43678;SDS011;29279;50.858;4.392;2022-10-23T06:48:46;6.30;;;1.73;;
43678;SDS011;29279;50.858;4.392;2022-10-23T06:51:13;5.35;;;2.08;;
43678;SDS011;29279;50.858;4.392;2022-10-23T06:53:41;4.95;;;1.95;;
43678;SDS011;29279;50.858;4.392;2022-10-23T06:56:07;7.32;;;1.60;;
43678;SDS011;29279;50.858;4.392;2022-10-23T06:58:35;5.38;;;1.83;;
43678;SDS011;29279;50.858;4.392;2022-10-23T07:01:02;4.25;;;1.90;;
43678;SDS011;29279;50.858;4.392;2022-10-23T07:03:31;9.20;;;2.63;;
43678;SDS011;29279;50.858;4.392;2022-10-23T07:06:00;5.97;;;1.98;;
43678;SDS011;29279;50.858;4.392;2022-10-23T07:08:27;9.68;;;1.98;;
43678;SDS011;29279;50.858;4.392;2022-10-23T07:10:53;9.63;;;2.13;;
43678;SDS011;29279;50.858;4.392;2022-10-23T07:13:18;8.13;;;1.60;;
43678;SDS011;29279;50.858;4.392;2022-10-23T07:15:44;6.68;;;1.38;;
43678;SDS011;29279;50.858;4.392;2022-10-23T07:18:09;9.02;;;1.85;;
43678;SDS011;29279;50.858;4.392;2022-10-23T07:20:40;4.18;;;1.60;;
43678;SDS011;29279;50.858;4.392;2022-10-23T07:23:06;10.43;;;1.90;;
43678;SDS011;29279;50.858;4.392;2022-10-23T07:25:33;6.20;;;1.42;;
43678;SDS011;29279;50.858;4.392;2022-10-23T07:27:58;10.48;;;2.00;;
43678;SDS011;29279;50.858;4.392;2022-10-23T07:30:24;4.05;;;1.52;;
43678;SDS011;29279;50.858;4.392;2022-10-23T07:32:50;7.28;;;1.85;;
43678;SDS011;29279;50.858;4.392;2022-10-23T07:35:16;10.45;;;2.17;;
43678;SDS011;29279;50.858;4.392;2022-10-23T07:37:42;7.05;;;1.83;;
43678;SDS011;29279;50.858;4.392;2022-10-23T07:40:09;5.35;;;1.52;;
43678;SDS011;29279;50.858;4.392;2022-10-23T07:42:35;7.40;;;2.17;;
43678;SDS011;29279;50.858;4.392;2022-10-23T07:45:00;7.30;;;1.95;;
43678;SDS011;29279;50.858;4.392;2022-10-23T07:47:28;3.60;;;1.88;;
43678;SDS011;29279;50.858;4.392;2022-10-23T07:49:54;7.90;;;1.77;;
43678;SDS011;29279;50.858;4.392;2022-10-23T07:52:19;4.03;;;1.67;;
43678;SDS011;29279;50.858;4.392;2022-10-23T07:54:45;7.25;;;1.98;;
43678;SDS011;29279;50.858;4.392;2022-10-23T07:57:14;7.25;;;2.05;;
43678;SDS011;29279;50.858;4.392;2022-10-23T07:59:40;11.18;;;2.13;;
43678;SDS011;29279;50.858;4.392;2022-10-23T08:02:09;6.30;;;2.35;;
43678;SDS011;29279;50.858;4.392;2022-10-23T08:04:38;7.18;;;1.77;;
43678;SDS011;29279;50.858;4.392;2022-10-23T08:07:04;5.88;;;1.77;;
43678;SDS011;29279;50.858;4.392;2022-10-23T08:09:30;8.13;;;1.70;;
43678;SDS011;29279;50.858;4.392;2022-10-23T08:11:58;9.85;;;1.85;;
43678;SDS011;29279;50.858;4.392;2022-10-23T08:14:24;8.82;;;2.17;;
43678;SDS011;29279;50.858;4.392;2022-10-23T08:16:50;6.13;;;1.77;;
43678;SDS011;29279;50.858;4.392;2022-10-23T08:19:16;6.63;;;1.95;;
43678;SDS011;29279;50.858;4.392;2022-10-23T08:21:42;5.88;;;1.60;;
43678;SDS011;29279;50.858;4.392;2022-10-23T08:24:08;5.97;;;2.22;;
43678;SDS011;29279;50.858;4.392;2022-10-23T08:26:38;6.88;;;1.98;;
43678;SDS011;29279;50.858;4.392;2022-10-23T08:29:04;5.38;;;1.98;;
43678;SDS011;29279;50.858;4.392;2022-10-23T08:31:29;5.63;;;2.22;;
43678;SDS011;29279;50.858;4.392;2022-10-23T08:33:55;7.40;;;2.10;;
43678;SDS011;29279;50.858;4.392;2022-10-23T08:36:25;6.35;;;2.20;;
43678;SDS011;29279;50.858;4.392;2022-10-23T08:38:52;6.22;;;1.70;;
43678;SDS011;29279;50.858;4.392;2022-10-23T08:41:23;7.72;;;2.22;;
43678;SDS011;29279;50.858;4.392;2022-10-23T08:46:49;10.38;;;2.47;;
43678;SDS011;29279;50.858;4.392;2022-10-23T08:52:22;6.63;;;2.22;;
43678;SDS011;29279;50.858;4.392;2022-10-23T08:55:04;5.32;;;2.08;;
43678;SDS011;29279;50.858;4.392;2022-10-23T08:57:49;7.60;;;2.13;;
43678;SDS011;29279;50.858;4.392;2022-10-23T09:00:38;9.00;;;2.30;;
43678;SDS011;29279;50.858;4.392;2022-10-23T09:03:10;6.68;;;2.28;;
43678;SDS011;29279;50.858;4.392;2022-10-23T09:11:09;7.03;;;2.53;;
43678;SDS011;29279;50.858;4.392;2022-10-23T09:16:42;10.90;;;2.67;;
43678;SDS011;29279;50.858;4.392;2022-10-23T09:19:21;7.55;;;2.67;;
43678;SDS011;29279;50.858;4.392;2022-10-23T09:21:51;6.32;;;2.13;;
43678;SDS011;29279;50.858;4.392;2022-10-23T09:24:19;11.18;;;2.70;;
43678;SDS011;29279;50.858;4.392;2022-10-23T09:26:48;7.88;;;2.55;;
43678;SDS011;29279;50.858;4.392;2022-10-23T09:29:20;16.17;;;2.70;;
43678;SDS011;29279;50.858;4.392;2022-10-23T09:31:48;9.05;;;2.78;;
43678;SDS011;29279;50.858;4.392;2022-10-23T09:34:19;11.05;;;4.18;;
43678;SDS011;29279;50.858;4.392;2022-10-23T09:36:48;10.82;;;2.80;;
43678;SDS011;29279;50.858;4.392;2022-10-23T09:39:23;13.18;;;3.25;;
43678;SDS011;29279;50.858;4.392;2022-10-23T09:41:51;10.40;;;3.00;;
43678;SDS011;29279;50.858;4.392;2022-10-23T09:46:55;7.72;;;2.65;;
43678;SDS011;29279;50.858;4.392;2022-10-23T09:49:29;7.07;;;2.90;;
43678;SDS011;29279;50.858;4.392;2022-10-23T09:52:18;8.05;;;2.60;;
43678;SDS011;29279;50.858;4.392;2022-10-23T09:54:56;6.10;;;2.83;;
43678;SDS011;29279;50.858;4.392;2022-10-23T10:00:02;6.47;;;2.60;;
43678;SDS011;29279;50.858;4.392;2022-10-23T10:02:32;8.65;;;3.03;;
43678;SDS011;29279;50.858;4.392;2022-10-23T10:05:10;17.45;;;3.25;;
43678;SDS011;29279;50.858;4.392;2022-10-23T10:10:45;8.38;;;3.05;;
43678;SDS011;29279;50.858;4.392;2022-10-23T10:18:46;8.95;;;3.55;;
43678;SDS011;29279;50.858;4.392;2022-10-23T10:24:11;8.10;;;3.45;;
43678;SDS011;29279;50.858;4.392;2022-10-23T10:30:04;8.55;;;3.20;;
43678;SDS011;29279;50.858;4.392;2022-10-23T10:35:35;8.95;;;3.13;;
43678;SDS011;29279;50.858;4.392;2022-10-23T10:41:14;6.55;;;2.88;;
43678;SDS011;29279;50.858;4.392;2022-10-23T10:55:11;10.48;;;2.38;;
43678;SDS011;29279;50.858;4.392;2022-10-23T10:58:08;13.77;;;3.10;;
43678;SDS011;29279;50.858;4.392;2022-10-23T11:00:35;17.95;;;3.53;;
43678;SDS011;29279;50.858;4.392;2022-10-23T11:05:53;8.25;;;2.78;;
43678;SDS011;29279;50.858;4.392;2022-10-23T11:13:42;13.57;;;2.80;;
43678;SDS011;29279;50.858;4.392;2022-10-23T11:16:13;11.43;;;2.92;;
43678;SDS011;29279;50.858;4.392;2022-10-23T11:19:13;15.10;;;4.22;;
43678;SDS011;29279;50.858;4.392;2022-10-23T11:21:48;14.20;;;3.58;;
43678;SDS011;29279;50.858;4.392;2022-10-23T11:24:24;12.95;;;3.97;;
43678;SDS011;29279;50.858;4.392;2022-10-23T11:29:59;14.73;;;3.75;;
43678;SDS011;29279;50.858;4.392;2022-10-23T11:35:43;14.88;;;4.55;;
43678;SDS011;29279;50.858;4.392;2022-10-23T11:38:16;12.27;;;3.33;;
43678;SDS011;29279;50.858;4.392;2022-10-23T11:40:44;10.98;;;3.20;;
43678;SDS011;29279;50.858;4.392;2022-10-23T11:43:12;13.82;;;4.10;;
43678;SDS011;29279;50.858;4.392;2022-10-23T11:45:49;17.33;;;2.92;;
43678;SDS011;29279;50.858;4.392;2022-10-23T11:50:58;16.25;;;4.93;;
43678;SDS011;29279;50.858;4.392;2022-10-23T11:58:41;5.70;;;2.78;;
43678;SDS011;29279;50.858;4.392;2022-10-23T12:03:53;9.00;;;3.58;;
43678;SDS011;29279;50.858;4.392;2022-10-23T12:06:27;15.38;;;2.83;;
43678;SDS011;29279;50.858;4.392;2022-10-23T12:09:01;7.40;;;2.60;;
43678;SDS011;29279;50.858;4.392;2022-10-23T12:11:40;5.55;;;2.65;;
43678;SDS011;29279;50.858;4.392;2022-10-23T12:14:27;11.77;;;2.83;;
43678;SDS011;29279;50.858;4.392;2022-10-23T12:16:53;7.93;;;2.00;;
43678;SDS011;29279;50.858;4.392;2022-10-23T12:19:20;8.23;;;2.75;;
43678;SDS011;29279;50.858;4.392;2022-10-23T12:21:58;12.95;;;3.40;;
43678;SDS011;29279;50.858;4.392;2022-10-23T12:27:36;5.28;;;2.20;;
43678;SDS011;29279;50.858;4.392;2022-10-23T12:30:21;10.57;;;3.00;;
43678;SDS011;29279;50.858;4.392;2022-10-23T12:35:50;8.50;;;2.53;;
43678;SDS011;29279;50.858;4.392;2022-10-23T12:38:29;9.77;;;2.75;;
43678;SDS011;29279;50.858;4.392;2022-10-23T12:41:04;8.32;;;2.42;;
43678;SDS011;29279;50.858;4.392;2022-10-23T12:43:36;13.40;;;3.47;;
43678;SDS011;29279;50.858;4.392;2022-10-23T12:46:17;7.25;;;2.63;;
43678;SDS011;29279;50.858;4.392;2022-10-23T12:48:50;5.78;;;2.42;;
43678;SDS011;29279;50.858;4.392;2022-10-23T12:51:53;8.23;;;2.65;;
43678;SDS011;29279;50.858;4.392;2022-10-23T12:54:16;8.05;;;2.85;;
43678;SDS011;29279;50.858;4.392;2022-10-23T12:56:43;8.55;;;2.60;;
43678;SDS011;29279;50.858;4.392;2022-10-23T12:59:17;9.00;;;2.92;;
43678;SDS011;29279;50.858;4.392;2022-10-23T13:01:50;5.43;;;2.58;;
43678;SDS011;29279;50.858;4.392;2022-10-23T13:04:37;7.03;;;3.20;;
43678;SDS011;29279;50.858;4.392;2022-10-23T13:07:02;8.38;;;2.75;;
43678;SDS011;29279;50.858;4.392;2022-10-23T13:09:32;10.15;;;3.10;;
43678;SDS011;29279;50.858;4.392;2022-10-23T13:12:03;8.38;;;2.95;;
43678;SDS011;29279;50.858;4.392;2022-10-23T13:14:31;6.90;;;2.50;;
43678;SDS011;29279;50.858;4.392;2022-10-23T13:16:58;11.75;;;3.33;;
43678;SDS011;29279;50.858;4.392;2022-10-23T13:19:25;8.77;;;3.00;;
43678;SDS011;29279;50.858;4.392;2022-10-23T13:21:51;6.43;;;2.80;;
43678;SDS011;29279;50.858;4.392;2022-10-23T13:24:18;5.50;;;2.45;;
43678;SDS011;29279;50.858;4.392;2022-10-23T13:26:45;10.23;;;2.90;;
43678;SDS011;29279;50.858;4.392;2022-10-23T13:29:22;5.95;;;3.30;;
43678;SDS011;29279;50.858;4.392;2022-10-23T13:32:11;18.75;;;3.65;;
43678;SDS011;29279;50.858;4.392;2022-10-23T13:34:50;7.22;;;3.30;;
43678;SDS011;29279;50.858;4.392;2022-10-23T13:40:35;15.90;;;3.13;;
43678;SDS011;29279;50.858;4.392;2022-10-23T13:42:51;7.03;;;2.83;;
43678;SDS011;29279;50.858;4.392;2022-10-23T13:45:20;8.63;;;2.92;;
43678;SDS011;29279;50.858;4.392;2022-10-23T13:47:47;10.35;;;2.83;;
43678;SDS011;29279;50.858;4.392;2022-10-23T13:50:13;6.93;;;2.85;;
43678;SDS011;29279;50.858;4.392;2022-10-23T13:52:39;8.07;;;3.15;;
43678;SDS011;29279;50.858;4.392;2022-10-23T13:55:25;9.80;;;2.58;;
43678;SDS011;29279;50.858;4.392;2022-10-23T13:57:51;10.13;;;2.53;;
43678;SDS011;29279;50.858;4.392;2022-10-23T14:00:17;7.75;;;2.60;;
43678;SDS011;29279;50.858;4.392;2022-10-23T14:02:43;8.10;;;2.58;;
43678;SDS011;29279;50.858;4.392;2022-10-23T14:05:08;11.27;;;2.70;;
43678;SDS011;29279;50.858;4.392;2022-10-23T14:07:34;11.05;;;2.72;;
43678;SDS011;29279;50.858;4.392;2022-10-23T14:10:00;14.90;;;3.78;;
43678;SDS011;29279;50.858;4.392;2022-10-23T14:12:25;11.90;;;3.78;;
43678;SDS011;29279;50.858;4.392;2022-10-23T14:14:51;17.95;;;4.55;;
43678;SDS011;29279;50.858;4.392;2022-10-23T14:17:20;15.88;;;6.82;;
43678;SDS011;29279;50.858;4.392;2022-10-23T14:19:46;13.15;;;4.05;;
43678;SDS011;29279;50.858;4.392;2022-10-23T14:22:12;11.00;;;3.17;;
43678;SDS011;29279;50.858;4.392;2022-10-23T14:24:37;18.67;;;3.55;;
43678;SDS011;29279;50.858;4.392;2022-10-23T14:27:03;12.57;;;5.10;;
43678;SDS011;29279;50.858;4.392;2022-10-23T14:29:29;11.00;;;4.55;;
43678;SDS011;29279;50.858;4.392;2022-10-23T14:31:55;14.32;;;5.65;;
43678;SDS011;29279;50.858;4.392;2022-10-23T14:34:20;10.75;;;3.95;;
43678;SDS011;29279;50.858;4.392;2022-10-23T14:36:46;13.38;;;4.25;;
43678;SDS011;29279;50.858;4.392;2022-10-23T14:39:12;8.80;;;2.70;;
43678;SDS011;29279;50.858;4.392;2022-10-23T14:41:37;12.07;;;3.22;;
43678;SDS011;29279;50.858;4.392;2022-10-23T14:44:04;8.15;;;3.50;;
43678;SDS011;29279;50.858;4.392;2022-10-23T14:46:30;8.77;;;3.53;;
43678;SDS011;29279;50.858;4.392;2022-10-23T14:48:56;7.75;;;3.33;;
43678;SDS011;29279;50.858;4.392;2022-10-23T14:51:22;17.17;;;4.55;;
43678;SDS011;29279;50.858;4.392;2022-10-23T14:54:00;9.13;;;3.83;;
43678;SDS011;29279;50.858;4.392;2022-10-23T14:56:29;12.15;;;5.00;;
43678;SDS011;29279;50.858;4.392;2022-10-23T14:58:57;12.65;;;3.63;;
43678;SDS011;29279;50.858;4.392;2022-10-23T15:01:30;14.38;;;3.85;;
43678;SDS011;29279;50.858;4.392;2022-10-23T15:03:57;11.65;;;4.63;;
43678;SDS011;29279;50.858;4.392;2022-10-23T15:06:23;10.43;;;3.90;;
43678;SDS011;29279;50.858;4.392;2022-10-23T15:08:50;11.60;;;5.20;;
43678;SDS011;29279;50.858;4.392;2022-10-23T15:11:19;11.23;;;4.28;;
43678;SDS011;29279;50.858;4.392;2022-10-23T15:13:46;12.38;;;4.38;;
43678;SDS011;29279;50.858;4.392;2022-10-23T15:16:12;10.93;;;4.03;;
43678;SDS011;29279;50.858;4.392;2022-10-23T15:18:38;9.32;;;4.22;;
43678;SDS011;29279;50.858;4.392;2022-10-23T15:21:04;9.07;;;3.67;;
43678;SDS011;29279;50.858;4.392;2022-10-23T15:23:31;13.20;;;3.50;;
43678;SDS011;29279;50.858;4.392;2022-10-23T15:25:59;9.65;;;3.72;;
43678;SDS011;29279;50.858;4.392;2022-10-23T15:28:26;8.93;;;3.55;;
43678;SDS011;29279;50.858;4.392;2022-10-23T15:30:52;11.68;;;3.33;;
43678;SDS011;29279;50.858;4.392;2022-10-23T15:33:18;7.82;;;3.08;;
43678;SDS011;29279;50.858;4.392;2022-10-23T15:35:44;16.02;;;3.75;;
43678;SDS011;29279;50.858;4.392;2022-10-23T15:38:10;14.00;;;4.18;;
43678;SDS011;29279;50.858;4.392;2022-10-23T15:40:36;9.38;;;3.03;;
43678;SDS011;29279;50.858;4.392;2022-10-23T15:43:01;12.77;;;3.05;;
43678;SDS011;29279;50.858;4.392;2022-10-23T15:45:28;9.70;;;2.95;;
43678;SDS011;29279;50.858;4.392;2022-10-23T15:47:55;10.07;;;3.30;;
43678;SDS011;29279;50.858;4.392;2022-10-23T15:50:21;13.02;;;2.92;;
43678;SDS011;29279;50.858;4.392;2022-10-23T15:52:47;8.80;;;2.60;;
43678;SDS011;29279;50.858;4.392;2022-10-23T15:55:12;9.52;;;3.42;;
43678;SDS011;29279;50.858;4.392;2022-10-23T15:57:38;6.22;;;2.72;;
43678;SDS011;29279;50.858;4.392;2022-10-23T16:00:06;8.05;;;2.55;;
43678;SDS011;29279;50.858;4.392;2022-10-23T16:02:34;8.68;;;3.03;;
43678;SDS011;29279;50.858;4.392;2022-10-23T16:05:00;9.15;;;2.65;;
43678;SDS011;29279;50.858;4.392;2022-10-23T16:07:25;7.85;;;2.65;;
43678;SDS011;29279;50.858;4.392;2022-10-23T16:09:51;11.25;;;2.90;;
43678;SDS011;29279;50.858;4.392;2022-10-23T16:12:17;9.40;;;3.67;;
43678;SDS011;29279;50.858;4.392;2022-10-23T16:14:43;9.82;;;3.08;;
43678;SDS011;29279;50.858;4.392;2022-10-23T16:17:09;6.10;;;3.03;;
43678;SDS011;29279;50.858;4.392;2022-10-23T16:19:35;9.98;;;3.30;;
43678;SDS011;29279;50.858;4.392;2022-10-23T16:22:01;8.88;;;3.47;;
43678;SDS011;29279;50.858;4.392;2022-10-23T16:24:27;10.35;;;2.70;;
43678;SDS011;29279;50.858;4.392;2022-10-23T16:26:54;18.70;;;3.83;;
43678;SDS011;29279;50.858;4.392;2022-10-23T16:29:21;9.27;;;3.88;;
43678;SDS011;29279;50.858;4.392;2022-10-23T16:31:50;11.50;;;3.55;;
43678;SDS011;29279;50.858;4.392;2022-10-23T16:34:18;10.75;;;3.50;;
43678;SDS011;29279;50.858;4.392;2022-10-23T16:36:44;7.68;;;3.83;;
43678;SDS011;29279;50.858;4.392;2022-10-23T16:39:11;9.13;;;3.40;;
43678;SDS011;29279;50.858;4.392;2022-10-23T16:41:38;13.13;;;4.25;;
43678;SDS011;29279;50.858;4.392;2022-10-23T16:44:04;14.15;;;6.00;;
43678;SDS011;29279;50.858;4.392;2022-10-23T16:46:29;21.48;;;5.18;;
43678;SDS011;29279;50.858;4.392;2022-10-23T16:48:55;20.02;;;9.27;;
43678;SDS011;29279;50.858;4.392;2022-10-23T16:51:23;10.38;;;5.28;;
43678;SDS011;29279;50.858;4.392;2022-10-23T16:53:50;13.82;;;6.65;;